Preview of NWS' New Version of Forecast
This preview is not operational and should not be used for support decisions.

Terminal Aerodrome Forecast (TAF)

Issued by National Weather Service (NWS)

                            
000
FTUS46 KSEW 242332
TAFBLI
TAF
KBLI 242332Z 2500/2524 17008KT P6SM SCT030 BKN060
     FM250200 17006KT P6SM OVC050
     FM251200 18005KT 4SM BR OVC020
     FM251900 17008KT P6SM BKN030
     FM252200 18007KT P6SM SCT250=